createdAt,value
2022-09-27T00:03:31.533Z,57.72
2022-09-27T00:06:15.539Z,57.76
2022-09-27T00:08:48.837Z,58.03
2022-09-27T00:11:31.533Z,57.83
2022-09-27T00:14:07.195Z,58.01
2022-09-27T00:30:22.556Z,58.07
2022-09-27T00:32:55.695Z,58.31
2022-09-27T00:35:22.332Z,58.07
2022-09-27T00:38:02.563Z,58.28
2022-09-27T00:40:35.815Z,58.32
2022-09-27T00:43:09.566Z,58.29
2022-09-27T00:45:50.333Z,58.37
2022-09-27T00:58:54.505Z,58.32
2022-09-27T01:01:36.604Z,58.28
2022-09-27T01:04:13.485Z,58.33
2022-09-27T01:06:54.541Z,58.33
2022-09-27T01:09:29.005Z,58.33
2022-09-27T01:23:02.522Z,58.16
2022-09-27T01:26:12.522Z,58.42
2022-09-27T01:29:03.952Z,58.35
2022-09-27T01:31:55.521Z,58.29
2022-09-27T01:34:43.158Z,58.47
2022-09-27T01:37:38.533Z,58.36
2022-09-27T01:40:25.651Z,58.04
2022-09-27T01:50:29.545Z,58.22
2022-09-27T01:53:09.189Z,57.92
2022-09-27T01:56:16.522Z,58.26
2022-09-27T01:59:03.827Z,58.29
2022-09-27T02:01:55.591Z,58.43
2022-09-27T02:04:43.463Z,58.11
2022-09-27T02:17:51.494Z,58.23
2022-09-27T02:20:42.398Z,58.08
2022-09-27T02:23:26.370Z,58.21
2022-09-27T02:26:23.539Z,58.28
2022-09-27T02:29:06.942Z,58.24
2022-09-27T02:45:45.644Z,58.14
2022-09-27T02:48:34.341Z,58.35
2022-09-27T02:51:39.557Z,58.23
2022-09-27T02:54:31.509Z,58.43
2022-09-27T02:57:29.545Z,58.25
2022-09-27T03:00:20.458Z,58.17
2022-09-27T03:10:13.521Z,58.44
2022-09-27T03:12:47.320Z,58.55
2022-09-27T03:15:20.521Z,58.51
2022-09-27T03:17:53.558Z,58.68
2022-09-27T03:20:49.915Z,58.62
2022-09-27T03:23:25.612Z,58.55
2022-09-27T03:26:00.536Z,58.45
2022-09-27T03:39:13.807Z,58.81
2022-09-27T03:41:48.758Z,58.65
2022-09-27T03:44:37.545Z,58.71
2022-09-27T03:47:10.935Z,58.66
2022-09-27T03:49:44.559Z,58.63
2022-09-27T04:03:39.559Z,58.91
2022-09-27T04:06:31.060Z,58.98
2022-09-27T04:09:11.675Z,59.03
2022-09-27T04:11:55.625Z,59.19
2022-09-27T04:14:35.509Z,59.12
2022-09-27T04:17:27.206Z,59.09
2022-09-27T04:20:29.531Z,59.03
2022-09-27T04:30:28.527Z,59.03
2022-09-27T04:33:19.522Z,59.09
2022-09-27T04:36:18.553Z,59.14
2022-09-27T04:39:21.519Z,58.99
2022-09-27T04:41:54.659Z,59.19
2022-09-27T04:44:28.542Z,59.21
2022-09-27T04:57:40.543Z,59.31
2022-09-27T05:00:15.118Z,59.34
2022-09-27T05:02:51.594Z,59.17
2022-09-27T05:05:45.217Z,59.27
2022-09-27T05:08:25.545Z,59.49
2022-09-27T05:11:17.298Z,59.44
2022-09-27T05:24:20.491Z,59.50
2022-09-27T05:27:00.502Z,59.58
2022-09-27T05:29:34.670Z,59.55
2022-09-27T05:32:37.878Z,59.79
2022-09-27T05:35:26.305Z,59.71
2022-09-27T05:38:06.524Z,59.81
2022-09-27T05:40:44.201Z,59.93
2022-09-27T05:50:49.521Z,60.00
2022-09-27T05:53:22.821Z,60.02
2022-09-27T05:55:57.513Z,60.07
2022-09-27T05:58:48.911Z,60.09
2022-09-27T06:01:29.582Z,60.08
2022-09-27T06:04:31.410Z,60.08
2022-09-27T06:17:59.472Z,60.43
2022-09-27T06:20:40.519Z,60.39
2022-09-27T06:23:16.794Z,60.38
2022-09-27T06:25:51.531Z,60.41
2022-09-27T06:28:38.739Z,60.40
2022-09-27T06:31:18.579Z,60.51
2022-09-27T06:44:36.521Z,60.85
2022-09-27T06:47:36.115Z,60.92
2022-09-27T06:50:53.510Z,60.94
2022-09-27T06:53:27.046Z,60.82
2022-09-27T06:56:04.502Z,60.91
2022-09-27T06:58:56.238Z,61.00
2022-09-27T07:12:05.490Z,61.19
2022-09-27T07:14:45.634Z,61.53
2022-09-27T07:17:20.297Z,61.22
2022-09-27T07:19:55.536Z,61.26
2022-09-27T07:22:29.599Z,61.38
2022-09-27T07:25:06.523Z,61.27
2022-09-27T07:38:19.510Z,61.65
2022-09-27T07:40:53.167Z,61.54
2022-09-27T07:43:28.522Z,61.28
2022-09-27T07:46:01.746Z,61.31
2022-09-27T07:48:49.522Z,61.66
2022-09-27T08:05:44.486Z,61.26
2022-09-27T08:08:24.496Z,61.30
2022-09-27T08:10:59.242Z,61.01
2022-09-27T08:13:32.501Z,61.46
2022-09-27T08:16:06.389Z,61.23
2022-09-27T08:18:58.521Z,61.04
2022-09-27T08:32:28.498Z,60.60
2022-09-27T08:35:02.508Z,60.67
2022-09-27T08:37:35.516Z,60.38
2022-09-27T08:40:14.445Z,60.35
2022-09-27T08:43:11.654Z,60.22
2022-09-27T08:46:03.516Z,60.05
2022-09-27T08:59:10.464Z,59.38
2022-09-27T09:01:51.556Z,59.14
2022-09-27T09:04:39.834Z,59.34
2022-09-27T09:07:41.486Z,59.31
2022-09-27T09:10:34.041Z,59.39
2022-09-27T09:27:09.485Z,58.46
2022-09-27T09:30:06.775Z,58.31
2022-09-27T09:33:16.642Z,58.23
2022-09-27T09:35:56.045Z,58.14
2022-09-27T09:38:46.496Z,57.89
2022-09-27T09:52:01.749Z,57.31
2022-09-27T09:54:45.346Z,57.36
2022-09-27T09:57:33.504Z,57.46
2022-09-27T10:00:16.311Z,57.55
2022-09-27T10:03:01.503Z,56.79
2022-09-27T10:05:35.091Z,56.85
2022-09-27T10:18:30.479Z,57.10
2022-09-27T10:21:17.493Z,57.22
2022-09-27T10:24:17.331Z,57.45
2022-09-27T10:27:11.522Z,57.36
2022-09-27T10:29:44.652Z,57.06
2022-09-27T10:46:26.509Z,56.47
2022-09-27T10:49:36.731Z,56.60
2022-09-27T10:52:35.493Z,56.65
2022-09-27T10:55:23.196Z,56.42
2022-09-27T10:58:03.509Z,56.21
2022-09-27T11:00:37.464Z,56.30
2022-09-27T11:13:27.477Z,57.24
2022-09-27T11:16:44.602Z,57.36
2022-09-27T11:19:56.572Z,57.26
2022-09-27T11:23:26.506Z,57.45
2022-09-27T11:26:25.822Z,56.89
2022-09-27T11:39:39.465Z,55.50
2022-09-27T11:42:50.487Z,56.41
2022-09-27T11:46:14.189Z,56.88
2022-09-27T11:49:16.589Z,57.61
2022-09-27T11:52:37.224Z,57.83
2022-09-27T11:55:41.169Z,58.48
2022-09-27T12:05:36.470Z,58.90
2022-09-27T12:08:44.497Z,59.45
2022-09-27T12:11:26.444Z,59.97
2022-09-27T12:14:15.487Z,60.03
2022-09-27T12:16:53.331Z,60.44
2022-09-27T12:19:41.499Z,60.71
2022-09-27T12:33:10.501Z,60.00
2022-09-27T12:35:51.201Z,60.03
2022-09-27T12:38:52.518Z,59.70
2022-09-27T12:41:28.356Z,59.51
2022-09-27T12:44:18.494Z,59.71
2022-09-27T13:01:04.488Z,59.98
2022-09-27T13:04:27.515Z,59.98
2022-09-27T13:07:25.647Z,59.83
2022-09-27T13:10:41.502Z,60.03
2022-09-27T13:13:27.429Z,60.30
2022-09-27T13:16:10.547Z,60.05
2022-09-27T13:26:01.463Z,60.06
2022-09-27T13:29:05.507Z,59.92
2022-09-27T13:32:15.094Z,60.13
2022-09-27T13:35:27.510Z,60.27
2022-09-27T13:38:22.549Z,59.03
2022-09-27T13:41:21.489Z,59.03
2022-09-27T13:52:11.449Z,59.46
2022-09-27T13:55:01.487Z,59.40
2022-09-27T13:57:54.026Z,59.30
2022-09-27T14:00:48.572Z,59.11
2022-09-27T14:03:33.577Z,59.12
2022-09-27T14:06:25.514Z,58.98
2022-09-27T14:19:47.471Z,57.50
2022-09-27T14:22:24.429Z,55.54
2022-09-27T14:25:24.487Z,54.42
2022-09-27T14:27:57.942Z,54.47
2022-09-27T14:30:39.477Z,54.74
2022-09-27T14:33:38.598Z,54.95
2022-09-27T14:46:39.455Z,55.30
2022-09-27T14:49:26.475Z,54.55
2022-09-27T14:52:01.682Z,55.23
2022-09-27T14:54:36.480Z,54.74
2022-09-27T14:57:13.916Z,55.26
2022-09-27T14:59:53.462Z,55.17
2022-09-27T15:13:07.501Z,53.14
2022-09-27T15:15:41.448Z,52.78
2022-09-27T15:18:47.889Z,52.14
2022-09-27T15:21:29.785Z,52.01
2022-09-27T15:24:10.464Z,51.12
2022-09-27T15:41:16.543Z,51.79
2022-09-27T15:43:58.467Z,51.99
2022-09-27T15:46:38.021Z,52.57
2022-09-27T15:49:34.475Z,52.63
2022-09-27T15:52:42.028Z,53.02
2022-09-27T15:55:23.465Z,53.28
2022-09-27T16:05:54.461Z,54.48
2022-09-27T16:08:37.391Z,54.51
2022-09-27T16:11:15.252Z,54.67
2022-09-27T16:13:55.500Z,54.93
2022-09-27T16:16:28.604Z,55.10
2022-09-27T16:18:55.193Z,55.08
2022-09-27T16:34:36.494Z,54.46
2022-09-27T16:37:09.606Z,54.80
2022-09-27T16:39:36.374Z,54.26
2022-09-27T16:42:16.503Z,54.70
2022-09-27T16:44:49.555Z,54.70
2022-09-27T17:01:05.539Z,54.80
2022-09-27T17:03:38.526Z,54.46
2022-09-27T17:06:12.474Z,54.51
2022-09-27T17:08:46.575Z,54.33
2022-09-27T17:11:21.326Z,54.27
2022-09-27T17:13:54.877Z,54.12
2022-09-27T17:16:31.568Z,54.43
2022-09-27T17:26:25.442Z,54.56
2022-09-27T17:29:06.462Z,54.51
2022-09-27T17:31:42.557Z,54.47
2022-09-27T17:34:18.532Z,54.42
2022-09-27T17:36:51.516Z,54.54
2022-09-27T17:39:27.465Z,54.67
2022-09-27T17:53:03.485Z,54.41
2022-09-27T17:55:36.531Z,54.41
2022-09-27T17:58:03.110Z,54.41
2022-09-27T18:00:43.464Z,54.36
2022-09-27T18:03:16.523Z,54.17
2022-09-27T18:05:43.127Z,54.42
2022-09-27T18:22:04.511Z,55.13
2022-09-27T18:24:39.780Z,54.98
2022-09-27T18:27:16.477Z,55.30
2022-09-27T18:29:52.022Z,55.05
2022-09-27T18:32:25.470Z,55.18
2022-09-27T18:34:58.659Z,55.18
2022-09-27T18:47:50.439Z,55.01
2022-09-27T18:50:31.470Z,54.94
2022-09-27T18:53:07.197Z,55.21
2022-09-27T18:55:46.300Z,55.30
2022-09-27T18:58:20.124Z,55.48
2022-09-27T19:01:05.547Z,55.38
2022-09-27T19:14:24.468Z,55.71
2022-09-27T19:16:59.084Z,55.94
2022-09-27T19:19:34.698Z,55.48
2022-09-27T19:22:07.580Z,55.24
2022-09-27T19:24:34.124Z,55.40
2022-09-27T19:41:01.498Z,55.85
2022-09-27T19:43:34.649Z,56.01
2022-09-27T19:46:13.519Z,56.18
2022-09-27T19:48:48.962Z,56.32
2022-09-27T19:51:25.459Z,56.02
2022-09-27T19:53:58.526Z,56.19
2022-09-27T19:56:33.445Z,56.05
2022-09-27T20:06:45.434Z,55.71
2022-09-27T20:09:25.465Z,55.69
2022-09-27T20:12:01.208Z,55.78
2022-09-27T20:14:34.459Z,55.75
2022-09-27T20:17:10.874Z,55.83
2022-09-27T20:19:45.340Z,55.71
2022-09-27T20:33:35.486Z,55.90
2022-09-27T20:36:10.526Z,55.85
2022-09-27T20:38:43.485Z,55.75
2022-09-27T20:41:20.090Z,55.65
2022-09-27T20:44:02.461Z,55.70
2022-09-27T20:46:37.763Z,55.76
2022-09-27T20:49:16.588Z,55.75
2022-09-27T21:02:25.534Z,55.82
2022-09-27T21:05:00.406Z,55.88
2022-09-27T21:07:33.445Z,55.99
2022-09-27T21:10:07.793Z,55.99
2022-09-27T21:12:40.474Z,56.18
2022-09-27T21:15:13.729Z,56.04
2022-09-27T21:28:04.458Z,56.21
2022-09-27T21:30:44.455Z,56.09
2022-09-27T21:33:17.551Z,56.12
2022-09-27T21:35:55.481Z,56.13
2022-09-27T21:38:30.227Z,56.17
2022-09-27T21:41:05.437Z,56.15
2022-09-27T21:54:20.457Z,56.34
2022-09-27T21:56:53.508Z,56.49
2022-09-27T21:59:20.061Z,56.50
2022-09-27T22:02:00.503Z,56.23
2022-09-27T22:04:33.585Z,56.39
2022-09-27T22:07:00.126Z,56.35
2022-09-27T22:09:41.430Z,56.19
2022-09-27T22:22:50.473Z,56.32
2022-09-27T22:25:19.069Z,56.24
2022-09-27T22:28:00.130Z,56.59
2022-09-27T22:30:33.558Z,56.36
2022-09-27T22:33:07.437Z,56.50
2022-09-27T22:35:45.572Z,56.59
2022-09-27T22:48:43.405Z,56.59
2022-09-27T22:51:24.442Z,56.66
2022-09-27T22:53:57.486Z,56.65
2022-09-27T22:56:24.021Z,56.64
2022-09-27T22:59:04.455Z,56.59
2022-09-27T23:01:37.522Z,56.57
2022-09-27T23:14:26.402Z,56.64
2022-09-27T23:17:06.434Z,56.75
2022-09-27T23:19:39.522Z,56.71
2022-09-27T23:22:06.067Z,56.79
2022-09-27T23:24:46.445Z,56.83
2022-09-27T23:27:19.558Z,56.95
2022-09-27T23:29:55.500Z,56.88
2022-09-27T23:43:04.435Z,57.17
2022-09-27T23:45:39.526Z,57.24
2022-09-27T23:48:12.450Z,57.30
2022-09-27T23:50:45.546Z,57.28
2022-09-27T23:53:12.081Z,57.12
2022-09-27T23:55:52.429Z,57.26
